Time;durP1;ratioP1;P1;durP2;ratioP2;P2;SDS_P1;SDS_P2;PMS_P1;PMS_P2;Temp;Humidity;BMP_temperature;BMP_pressure;BME280_temperature;BME280_humidity;BME280_pressure;Samples;Min_cycle;Max_cycle;Signal;HPM_P1;HPM_P2
2023/08/26 00:01:02;;;;;;;3.17;2.40;;;;;;;17.39;100.00;100793.22;5091635;28;20040;-56
2023/08/26 00:03:27;;;;;;;5.43;2.20;;;;;;;17.36;100.00;100807.59;5091436;28;20036;-55
2023/08/26 00:05:52;;;;;;;2.83;2.00;;;;;;;17.42;100.00;100782.41;5092942;28;20878;-55
2023/08/26 00:08:18;;;;;;;3.05;2.13;;;;;;;17.41;100.00;100788.66;5092608;28;20036;-55
2023/08/26 00:10:43;;;;;;;5.78;2.00;;;;;;;17.34;100.00;100766.88;5092384;28;20391;-55
2023/08/26 00:13:08;;;;;;;3.67;2.08;;;;;;;17.35;100.00;100771.28;5092692;28;20040;-55
2023/08/26 00:15:34;;;;;;;3.15;1.80;;;;;;;17.45;100.00;100784.88;5092783;28;20054;-52
2023/08/26 00:17:59;;;;;;;5.28;2.15;;;;;;;17.37;100.00;100769.34;5091408;28;20036;-55
2023/08/26 00:20:24;;;;;;;2.53;1.75;;;;;;;17.20;100.00;100740.28;5092726;28;20032;-54
2023/08/26 00:22:50;;;;;;;4.63;2.80;;;;;;;17.37;100.00;100774.69;5092581;28;20458;-57
2023/08/26 00:25:16;;;;;;;23.38;5.70;;;;;;;17.04;100.00;100710.25;5092593;28;20028;-50
2023/08/26 00:27:41;;;;;;;7.65;4.03;;;;;;;17.23;100.00;100764.03;5091414;28;20415;-55
2023/08/26 00:30:07;;;;;;;11.30;4.43;;;;;;;17.00;100.00;100769.03;5091174;28;20032;-51
2023/08/26 00:32:32;;;;;;;7.28;4.35;;;;;;;16.65;100.00;100728.59;5092359;28;20024;-52
2023/08/26 00:34:57;;;;;;;10.02;4.53;;;;;;;16.51;100.00;100715.22;5091158;28;20035;-54
2023/08/26 00:37:23;;;;;;;6.55;4.32;;;;;;;16.33;100.00;100703.88;5092580;28;20032;-50
2023/08/26 00:39:48;;;;;;;7.47;4.30;;;;;;;15.81;100.00;100621.06;5092442;28;20035;-54
2023/08/26 00:42:13;;;;;;;9.57;4.95;;;;;;;16.06;100.00;100668.28;5092225;28;20368;-49
2023/08/26 00:44:39;;;;;;;9.52;4.97;;;;;;;16.16;100.00;100683.63;5089833;28;20510;-52
2023/08/26 00:47:04;;;;;;;11.20;4.78;;;;;;;16.44;100.00;100740.44;5092185;28;20390;-53
2023/08/26 00:49:29;;;;;;;8.35;5.43;;;;;;;16.40;100.00;100738.91;5091171;28;20050;-56
2023/08/26 00:51:55;;;;;;;12.43;5.75;;;;;;;16.17;100.00;100703.06;5092156;28;20578;-53
2023/08/26 00:54:20;;;;;;;12.15;5.80;;;;;;;15.93;100.00;100665.50;5090863;28;20044;-51
2023/08/26 00:56:46;;;;;;;7.38;4.47;;;;;;;16.03;100.00;100679.06;5092176;28;20064;-50
2023/08/26 00:59:11;;;;;;;9.90;4.40;;;;;;;16.23;100.00;100722.13;5089999;28;20115;-52
2023/08/26 01:01:36;;;;;;;11.60;4.60;;;;;;;16.16;100.00;100731.41;5090976;28;20043;-53
2023/08/26 01:04:02;;;;;;;11.55;4.40;;;;;;;15.32;100.00;100587.63;5090522;28;20432;-54
2023/08/26 01:06:28;;;;;;;7.15;4.55;;;;;;;15.81;100.00;100700.69;5090792;28;20660;-53
2023/08/26 01:08:53;;;;;;;6.88;4.05;;;;;;;15.57;100.00;100684.34;5092145;28;20351;-50
2023/08/26 01:11:33;;;;;;;9.13;4.18;;;;;;;15.79;100.00;100720.31;5090868;28;20066;-48
2023/08/26 01:14:23;;;;;;;8.75;4.18;;;;;;;15.70;100.00;100719.00;5090710;28;20048;-47
2023/08/26 01:16:48;;;;;;;8.68;3.83;;;;;;;15.20;100.00;100664.25;5089857;28;20115;-53
2023/08/26 01:19:26;;;;;;;12.63;4.60;;;;;;;15.17;100.00;100655.59;5090939;28;20125;-51
2023/08/26 01:21:54;;;;;;;7.05;3.47;;;;;;;15.03;100.00;100637.75;5091861;28;20053;-51
2023/08/26 01:24:20;;;;;;;10.70;4.20;;;;;;;15.45;100.00;100730.06;5090485;28;20487;-53
2023/08/26 01:26:45;;;;;;;6.90;3.95;;;;;;;15.31;100.00;100698.13;5091647;28;20031;-52
2023/08/26 01:29:11;;;;;;;9.10;3.85;;;;;;;15.38;100.00;100715.41;5092013;28;20398;-54
2023/08/26 01:31:37;;;;;;;9.13;3.83;;;;;;;15.39;100.00;100716.25;5092060;28;20044;-53
2023/08/26 01:34:17;;;;;;;9.95;3.67;;;;;;;15.33;100.00;100721.91;5089125;28;20452;-51
2023/08/26 01:36:44;;;;;;;8.55;3.50;;;;;;;14.55;100.00;100584.75;5090555;28;20364;-49
2023/08/26 01:39:13;;;;;;;11.52;3.45;;;;;;;15.30;100.00;100700.84;5090529;28;20032;-49
2023/08/26 01:41:42;;;;;;;10.60;3.80;;;;;;;15.45;100.00;100726.53;5091942;28;20040;-53
2023/08/26 01:44:08;;;;;;;9.85;4.22;;;;;;;15.07;100.00;100641.97;5090576;28;20044;-51
2023/08/26 01:46:37;;;;;;;11.30;3.38;;;;;;;15.59;100.00;100722.25;5091526;28;20109;-52
2023/08/26 01:49:03;;;;;;;8.10;3.72;;;;;;;15.63;100.00;100725.59;5091328;28;20545;-53
2023/08/26 01:51:28;;;;;;;9.50;3.85;;;;;;;15.35;100.00;100670.50;5090563;28;20036;-56
2023/08/26 01:53:54;;;;;;;9.30;3.22;;;;;;;15.26;100.00;100636.53;5089922;28;20404;-53
2023/08/26 01:56:19;;;;;;;11.27;4.40;;;;;;;15.68;100.00;100703.16;5091539;28;20075;-56
2023/08/26 01:58:44;;;;;;;10.48;3.95;;;;;;;15.73;100.00;100717.03;5091573;28;20464;-52
2023/08/26 02:01:09;;;;;;;12.02;3.80;;;;;;;15.64;100.00;100714.88;5092684;28;20462;-52
2023/08/26 02:03:35;;;;;;;7.82;3.97;;;;;;;15.29;100.00;100652.28;5093697;28;20047;-50
2023/08/26 02:06:00;;;;;;;12.00;4.85;;;;;;;15.67;100.00;100727.16;5095181;28;20036;-58
2023/08/26 02:08:26;;;;;;;9.25;4.15;;;;;;;15.56;100.00;100719.75;5092524;28;20060;-55
2023/08/26 02:10:55;;;;;;;11.50;5.18;;;;;;;15.20;100.00;100651.00;5093912;28;20482;-51
2023/08/26 02:13:21;;;;;;;10.68;5.40;;;;;;;15.59;100.00;100732.84;5093632;28;20066;-50
2023/08/26 02:15:46;;;;;;;16.95;6.10;;;;;;;15.56;100.00;100729.50;5095067;28;20040;-53
2023/08/26 02:18:12;;;;;;;12.27;5.55;;;;;;;15.14;100.00;100655.75;5094760;28;20077;-52
2023/08/26 02:20:40;;;;;;;23.92;7.72;;;;;;;15.56;100.00;100737.47;5093674;28;20036;-60
2023/08/26 02:23:05;;;;;;;12.82;8.00;;;;;;;15.07;100.00;100649.94;5092292;28;20042;-55
2023/08/26 02:25:31;;;;;;;14.93;7.13;;;;;;;15.46;100.00;100720.31;5094947;28;20379;-53
2023/08/26 02:27:56;;;;;;;17.80;7.80;;;;;;;15.20;100.00;100679.28;5094735;28;20387;-55
2023/08/26 02:30:21;;;;;;;18.90;8.20;;;;;;;15.20;100.00;100672.19;5093658;28;20397;-52
2023/08/26 02:32:47;;;;;;;19.27;8.07;;;;;;;15.42;100.00;100713.44;5094474;28;20094;-52
2023/08/26 02:35:12;;;;;;;28.00;9.30;;;;;;;15.02;100.00;100656.41;5094670;28;20043;-50
2023/08/26 02:37:37;;;;;;;19.85;9.73;;;;;;;15.45;100.00;100722.09;5094044;28;20028;-50
2023/08/26 02:40:05;;;;;;;16.05;8.90;;;;;;;15.43;100.00;100723.13;5093328;28;20044;-54
2023/08/26 02:42:32;;;;;;;14.35;8.88;;;;;;;15.48;100.00;100727.28;5094547;28;20039;-54
2023/08/26 02:44:58;;;;;;;14.38;8.52;;;;;;;15.45;100.00;100718.59;5094486;28;20028;-52
2023/08/26 02:47:23;;;;;;;18.60;10.43;;;;;;;15.44;100.00;100716.91;5093083;28;20054;-57
2023/08/26 02:49:49;;;;;;;17.35;12.93;;;;;;;15.48;100.00;100719.31;5094343;28;20028;-51
2023/08/26 02:52:14;;;;;;;16.40;11.80;;;;;;;15.36;100.00;100700.53;5093976;28;20032;-53
2023/08/26 02:54:39;;;;;;;19.90;12.13;;;;;;;15.44;100.00;100722.22;5093956;28;20032;-54
2023/08/26 02:57:05;;;;;;;15.18;9.82;;;;;;;15.39;100.00;100721.56;5093347;28;20047;-55
2023/08/26 02:59:30;;;;;;;15.38;9.95;;;;;;;15.37;100.00;100716.38;5094165;28;20039;-53
2023/08/26 03:02:06;;;;;;;15.35;9.23;;;;;;;15.02;100.00;100659.06;5092171;28;20047;-51
2023/08/26 03:04:31;;;;;;;17.17;9.65;;;;;;;15.28;100.00;100710.69;5093823;28;20118;-53
2023/08/26 03:06:57;;;;;;;14.80;9.10;;;;;;;14.89;100.00;100648.25;5093760;28;20090;-54
2023/08/26 03:09:22;;;;;;;16.63;8.65;;;;;;;15.27;100.00;100706.31;5092800;28;20060;-59
2023/08/26 03:11:47;;;;;;;14.40;7.88;;;;;;;15.19;100.00;100704.09;5091236;28;20487;-54
2023/08/26 03:14:14;;;;;;;15.77;8.25;;;;;;;14.91;100.00;100657.00;5093081;28;20048;-59
2023/08/26 03:16:40;;;;;;;15.93;7.85;;;;;;;15.24;100.00;100733.84;5093740;28;20540;-52
2023/08/26 03:19:05;;;;;;;12.30;8.45;;;;;;;15.24;100.00;100715.28;5093544;28;20063;-52
2023/08/26 03:21:31;;;;;;;14.75;8.77;;;;;;;14.88;100.00;100646.56;5092124;28;20085;-55
2023/08/26 03:23:57;;;;;;;14.45;8.88;;;;;;;15.36;100.00;100719.94;5093571;28;20043;-57
2023/08/26 03:26:23;;;;;;;17.90;9.27;;;;;;;14.91;100.00;100638.44;5093365;28;20036;-50
2023/08/26 03:28:49;;;;;;;12.48;7.97;;;;;;;15.06;100.00;100677.38;5091077;28;20047;-53
2023/08/26 03:31:14;;;;;;;16.77;7.65;;;;;;;15.28;100.00;100726.59;5093326;28;20038;-54
2023/08/26 03:33:40;;;;;;;17.30;7.63;;;;;;;15.17;100.00;100724.53;5092208;28;20489;-53
2023/08/26 03:36:06;;;;;;;11.73;6.90;;;;;;;15.16;100.00;100723.66;5093429;28;20112;-54
2023/08/26 03:38:32;;;;;;;11.73;6.85;;;;;;;15.06;100.00;100726.91;5093586;28;20036;-55
2023/08/26 03:40:57;;;;;;;18.10;6.80;;;;;;;14.68;100.00;100660.00;5093596;28;20040;-55
2023/08/26 03:43:23;;;;;;;11.15;6.55;;;;;;;15.06;100.00;100727.72;5092349;28;20443;-50
2023/08/26 03:45:48;;;;;;;14.43;7.80;;;;;;;14.60;100.00;100655.09;5093241;28;20040;-51
2023/08/26 03:48:13;;;;;;;14.88;8.27;;;;;;;15.01;100.00;100740.38;5093364;28;20039;-55
2023/08/26 03:50:51;;;;;;;7.40;6.57;;;;;;;14.93;100.00;100720.50;5093068;28;20028;-55
2023/08/26 03:53:17;;;;;;;14.88;7.10;;;;;;;14.72;100.00;100717.16;5093203;28;20032;-57
2023/08/26 03:55:43;;;;;;;15.10;8.32;;;;;;;14.60;100.00;100699.25;5092029;28;20391;-54
2023/08/26 03:58:08;;;;;;;16.77;7.63;;;;;;;14.39;100.00;100680.00;5091677;28;20024;-53
2023/08/26 04:00:34;;;;;;;13.35;8.18;;;;;;;14.13;100.00;100645.19;5091765;28;20032;-54
2023/08/26 04:03:00;;;;;;;11.85;7.72;;;;;;;14.01;100.00;100652.75;5092773;28;20036;-50
2023/08/26 04:05:25;;;;;;;13.95;7.90;;;;;;;14.41;100.00;100725.81;5091999;28;20127;-50
2023/08/26 04:07:50;;;;;;;12.55;8.27;;;;;;;14.37;100.00;100729.53;5093060;28;20054;-53
2023/08/26 04:10:16;;;;;;;13.77;7.80;;;;;;;14.03;100.00;100677.38;5092768;28;20032;-52
2023/08/26 04:12:41;;;;;;;18.10;9.85;;;;;;;13.86;100.00;100653.53;5092887;28;20086;-52
2023/08/26 04:15:07;;;;;;;18.23;7.90;;;;;;;13.83;100.00;100658.97;5092544;28;20147;-53
2023/08/26 04:17:32;;;;;;;15.65;8.40;;;;;;;13.83;100.00;100666.91;5091278;28;20065;-56
2023/08/26 04:19:59;;;;;;;12.70;7.18;;;;;;;13.85;100.00;100670.34;5092908;28;20490;-57
2023/08/26 04:22:24;;;;;;;14.70;8.00;;;;;;;13.78;100.00;100663.63;5091407;28;20499;-54
2023/08/26 04:24:50;;;;;;;12.30;7.20;;;;;;;14.17;100.00;100734.94;5092352;28;20032;-57
2023/08/26 04:27:16;;;;;;;18.15;8.63;;;;;;;14.16;100.00;100737.63;5092393;28;20372;-52
2023/08/26 04:29:42;;;;;;;9.75;7.70;;;;;;;14.12;100.00;100738.75;5092697;28;20472;-58
2023/08/26 04:32:07;;;;;;;14.48;8.82;;;;;;;14.11;100.00;100745.81;5091128;28;20032;-53
2023/08/26 04:34:32;;;;;;;15.63;8.95;;;;;;;14.05;100.00;100731.09;5092348;28;20032;-54
2023/08/26 04:36:57;;;;;;;15.18;8.32;;;;;;;13.64;100.00;100671.34;5074395;28;20035;-57
2023/08/26 04:39:23;;;;;;;14.32;8.13;;;;;;;13.77;100.00;100728.06;5092357;28;20031;-51
2023/08/26 04:41:48;;;;;;;18.42;8.57;;;;;;;14.00;100.00;100741.06;5092582;28;20028;-57
2023/08/26 04:44:17;;;;;;;13.40;8.00;;;;;;;13.87;100.00;100720.53;5092546;28;20066;-58
2023/08/26 04:46:42;;;;;;;14.82;9.15;;;;;;;13.98;100.00;100752.66;5092398;28;20054;-54
2023/08/26 04:49:08;;;;;;;18.25;9.30;;;;;;;13.80;100.00;100719.13;5091149;28;20048;-54
2023/08/26 04:51:33;;;;;;;17.35;8.18;;;;;;;13.94;100.00;100749.28;5092488;28;20399;-51
2023/08/26 04:53:58;;;;;;;13.60;8.65;;;;;;;13.95;100.00;100764.22;5092007;28;20491;-53
2023/08/26 04:56:24;;;;;;;17.70;9.25;;;;;;;13.50;100.00;100677.31;5091204;28;20089;-57
2023/08/26 04:58:50;;;;;;;14.10;8.27;;;;;;;13.84;100.00;100741.84;5092057;28;20058;-54
2023/08/26 05:01:15;;;;;;;14.95;8.60;;;;;;;13.49;100.00;100686.16;5090818;28;20032;-58
2023/08/26 05:03:41;;;;;;;14.55;8.20;;;;;;;13.94;100.00;100757.22;5092165;28;20110;-51
2023/08/26 05:06:06;;;;;;;11.68;7.82;;;;;;;13.94;100.00;100753.72;5091078;28;20040;-54
2023/08/26 05:08:31;;;;;;;11.82;8.02;;;;;;;13.93;100.00;100755.50;5092102;28;20039;-53
2023/08/26 05:10:57;;;;;;;16.23;8.27;;;;;;;14.00;100.00;100770.16;5090783;28;20036;-53
2023/08/26 05:13:22;;;;;;;14.93;8.15;;;;;;;14.02;100.00;100760.34;5091708;28;20032;-52
2023/08/26 05:15:47;;;;;;;13.68;7.95;;;;;;;14.07;100.00;100763.63;5091479;28;20129;-52
2023/08/26 05:18:14;;;;;;;15.82;8.32;;;;;;;14.09;100.00;100764.44;5091687;28;20434;-57
2023/08/26 05:20:44;;;;;;;13.70;8.00;;;;;;;14.14;100.00;100758.03;5092052;28;20394;-57
2023/08/26 05:23:10;;;;;;;15.80;6.90;;;;;;;14.19;100.00;100756.03;5089622;28;20032;-57
2023/08/26 05:25:36;;;;;;;16.55;6.63;;;;;;;14.20;100.00;100758.59;5091998;28;20044;-55
2023/08/26 05:28:04;;;;;;;16.13;5.88;;;;;;;14.23;100.00;100760.25;5091970;28;20128;-55
2023/08/26 05:30:29;;;;;;;8.93;6.05;;;;;;;14.22;100.00;100743.50;5091795;28;20094;-54
2023/08/26 05:32:55;;;;;;;9.77;6.05;;;;;;;14.39;100.00;100763.91;5091718;28;20036;-56
2023/08/26 05:35:20;;;;;;;10.88;5.35;;;;;;;14.46;100.00;100765.31;5091825;28;20071;-58
2023/08/26 05:37:46;;;;;;;14.07;5.03;;;;;;;14.09;100.00;100689.47;5095865;28;20051;-52
2023/08/26 05:40:12;;;;;;;12.43;4.97;;;;;;;14.35;100.00;100727.91;5094542;28;20050;-56
2023/08/26 05:42:37;;;;;;;14.15;5.45;;;;;;;14.39;100.00;100705.66;5095635;28;20032;-56
2023/08/26 05:45:03;;;;;;;10.38;4.50;;;;;;;14.46;100.00;100694.66;5095458;28;20112;-55
2023/08/26 05:47:29;;;;;;;12.15;4.85;;;;;;;14.67;100.00;100703.31;5094740;28;20070;-55
2023/08/26 05:49:58;;;;;;;10.38;4.32;;;;;;;14.94;100.00;100738.13;5095486;28;20490;-57
2023/08/26 05:52:23;;;;;;;15.45;5.03;;;;;;;15.15;100.00;100753.75;5095473;28;20032;-51
2023/08/26 05:54:49;;;;;;;9.10;4.90;;;;;;;14.93;100.00;100734.63;5094351;28;20085;-56
2023/08/26 05:57:14;;;;;;;8.07;3.72;;;;;;;15.26;100.00;100749.69;5095102;28;20028;-54
2023/08/26 05:59:39;;;;;;;9.32;4.95;;;;;;;14.94;100.00;100685.13;5094733;28;20093;-53
2023/08/26 06:02:05;;;;;;;8.93;4.72;;;;;;;14.92;100.00;100677.25;5095401;28;20028;-54
2023/08/26 06:04:30;;;;;;;6.45;4.00;;;;;;;14.96;100.00;100672.63;5095403;28;20113;-55
2023/08/26 06:06:57;;;;;;;9.30;4.00;;;;;;;15.07;100.00;100683.53;5095083;28;20036;-59
2023/08/26 06:09:22;;;;;;;10.80;4.25;;;;;;;15.45;100.00;100739.81;5093806;28;20422;-52
2023/08/26 06:11:48;;;;;;;12.30;4.95;;;;;;;15.59;100.00;100742.59;5093969;28;20028;-51
2023/08/26 06:14:13;;;;;;;11.32;4.15;;;;;;;15.71;100.00;100741.94;5093247;28;20085;-51
2023/08/26 06:16:38;;;;;;;8.90;4.28;;;;;;;15.39;100.00;100677.34;5094434;28;20048;-55
2023/08/26 06:19:04;;;;;;;12.13;3.95;;;;;;;15.84;100.00;100739.47;5093472;28;20042;-56
2023/08/26 06:21:29;;;;;;;9.07;3.47;;;;;;;15.58;100.00;100682.53;5094915;28;20058;-58
2023/08/26 06:23:54;;;;;;;8.00;3.85;;;;;;;15.60;100.00;100691.25;5094614;28;20032;-55
2023/08/26 06:26:20;;;;;;;8.88;3.42;;;;;;;16.06;100.00;100751.44;5093341;28;20086;-54
2023/08/26 06:28:45;;;;;;;6.97;3.38;;;;;;;16.16;100.00;100755.31;5094729;28;20024;-54
2023/08/26 06:31:12;;;;;;;9.82;4.30;;;;;;;16.21;100.00;100721.38;5093016;28;20433;-55
2023/08/26 06:33:37;;;;;;;8.25;3.65;;;;;;;16.12;100.00;100698.00;5094738;28;20062;-52
2023/08/26 06:36:03;;;;;;;7.40;3.00;;;;;;;16.56;100.00;100763.66;5094733;28;20479;-56
2023/08/26 06:38:28;;;;;;;6.22;2.80;;;;;;;16.68;100.00;100781.56;5094697;28;20085;-57
2023/08/26 06:40:57;;;;;;;9.57;3.30;;;;;;;16.68;100.00;100787.75;5094486;28;20040;-57
2023/08/26 06:43:22;;;;;;;9.15;2.80;;;;;;;16.22;100.00;100733.72;5094470;28;20028;-55
2023/08/26 06:45:48;;;;;;;6.63;2.67;;;;;;;16.39;100.00;100771.72;5093292;28;20035;-53
2023/08/26 06:48:14;;;;;;;5.45;2.95;;;;;;;16.38;100.00;100777.97;5094198;28;20040;-53
2023/08/26 06:50:40;;;;;;;6.60;3.35;;;;;;;16.30;100.00;100776.63;5094296;28;20114;-52
2023/08/26 06:53:06;;;;;;;9.07;3.40;;;;;;;16.42;100.00;100788.34;5092777;28;20135;-53
2023/08/26 06:55:31;;;;;;;13.90;4.00;;;;;;;16.04;100.00;100716.19;5094347;28;20036;-51
2023/08/26 06:57:56;;;;;;;8.82;4.22;;;;;;;16.31;100.00;100773.00;5093971;28;20070;-55
2023/08/26 07:00:22;;;;;;;8.27;4.90;;;;;;;16.38;100.00;100793.91;5094090;28;20036;-54
2023/08/26 07:02:47;;;;;;;6.05;5.03;;;;;;;16.13;100.00;100736.91;5092993;28;20034;-52
2023/08/26 07:05:12;;;;;;;7.32;4.65;;;;;;;16.19;100.00;100731.25;5094224;28;20522;-54
2023/08/26 07:07:38;;;;;;;5.90;4.45;;;;;;;16.65;100.00;100803.00;5094167;28;20375;-52
2023/08/26 07:10:04;;;;;;;6.00;4.18;;;;;;;16.64;100.00;100806.59;5093612;28;20032;-51
2023/08/26 07:12:30;;;;;;;3.95;3.47;;;;;;;16.44;100.00;100748.41;5091605;28;20097;-49
2023/08/26 07:14:55;;;;;;;5.75;3.78;;;;;;;16.62;100.00;100772.16;5093334;28;20063;-55
2023/08/26 07:17:21;;;;;;;4.07;3.70;;;;;;;16.90;100.00;100802.44;5093791;28;20044;-56
2023/08/26 07:19:46;;;;;;;5.00;3.85;;;;;;;16.60;100.00;100735.97;5093705;28;20028;-50
2023/08/26 07:22:11;;;;;;;4.68;3.72;;;;;;;17.19;100.00;100806.88;5093317;28;20489;-50
2023/08/26 07:24:37;;;;;;;4.22;2.90;;;;;;;17.31;100.00;100792.81;5092150;28;20467;-56
2023/08/26 07:27:03;;;;;;;5.68;2.83;;;;;;;17.85;100.00;100816.06;5092228;28;20047;-55
2023/08/26 07:29:31;;;;;;;4.82;2.40;;;;;;;17.71;100.00;100754.00;5093560;28;20360;-55
2023/08/26 07:31:56;;;;;;;6.88;2.30;;;;;;;18.70;100.00;100815.03;5093618;28;20043;-53
2023/08/26 07:34:22;;;;;;;6.25;2.17;;;;;;;19.12;100.00;100816.66;5093238;28;20131;-53
2023/08/26 07:36:47;;;;;;;3.22;2.00;;;;;;;19.42;100.00;100825.25;5093405;28;20032;-50
2023/08/26 07:39:13;;;;;;;4.07;1.70;;;;;;;19.59;100.00;100804.41;5093316;28;20056;-53
2023/08/26 07:41:38;;;;;;;5.07;2.00;;;;;;;19.92;100.00;100830.56;5092244;28;20032;-54
2023/08/26 07:44:04;;;;;;;5.68;1.48;;;;;;;20.29;100.00;100796.72;5092976;28;20036;-51
2023/08/26 07:46:29;;;;;;;1.85;1.20;;;;;;;20.77;100.00;100846.59;5093385;28;20090;-56
2023/08/26 07:48:54;;;;;;;5.05;1.35;;;;;;;20.66;100.00;100849.22;5092923;28;20106;-55
2023/08/26 07:51:20;;;;;;;3.83;1.65;;;;;;;20.80;100.00;100850.88;5093077;28;20081;-49
2023/08/26 07:53:45;;;;;;;3.20;1.50;;;;;;;20.64;100.00;100827.06;5093058;28;20097;-53
2023/08/26 07:56:10;;;;;;;2.58;1.40;;;;;;;20.08;100.00;100793.75;5093109;28;20043;-53
2023/08/26 07:58:36;;;;;;;7.63;1.92;;;;;;;20.18;100.00;100845.59;5090923;28;20445;-58
2023/08/26 08:01:01;;;;;;;5.57;1.35;;;;;;;20.55;100.00;100846.47;5091807;28;20529;-50
2023/08/26 08:03:27;;;;;;;1.48;1.20;;;;;;;20.66;100.00;100856.38;5093018;28;20063;-52
2023/08/26 08:05:52;;;;;;;2.15;1.05;;;;;;;20.95;100.00;100859.56;5092748;28;20032;-54
2023/08/26 08:08:18;;;;;;;3.45;1.25;;;;;;;21.33;100.00;100848.66;5092746;28;20032;-54
2023/08/26 08:10:43;;;;;;;3.13;1.13;;;;;;;21.84;100.00;100850.81;5092436;28;20098;-56
2023/08/26 08:13:09;;;;;;;3.53;1.33;;;;;;;21.84;100.00;100812.44;5091154;28;20035;-50
2023/08/26 08:15:34;;;;;;;3.20;0.90;;;;;;;22.35;100.00;100875.34;5091285;28;20064;-56
2023/08/26 08:17:59;;;;;;;3.55;1.23;;;;;;;22.83;100.00;100840.09;5093031;28;20036;-51
2023/08/26 08:20:25;;;;;;;7.80;1.10;;;;;;;23.36;100.00;100870.50;5091358;28;20455;-61
2023/08/26 08:22:50;;;;;;;1.83;0.95;;;;;;;23.25;100.00;100874.09;5092224;28;20464;-51
2023/08/26 08:25:16;;;;;;;1.85;1.00;;;;;;;23.40;100.00;100866.59;5090384;28;20043;-55
2023/08/26 08:27:41;;;;;;;1.40;0.90;;;;;;;23.28;100.00;100847.00;5090943;28;20074;-51
2023/08/26 08:30:07;;;;;;;4.40;1.30;;;;;;;23.50;100.00;100864.81;5092363;28;20031;-51
2023/08/26 08:32:33;;;;;;;1.73;0.90;;;;;;;23.90;100.00;100883.75;5092416;28;20039;-58
2023/08/26 08:35:02;;;;;;;1.77;0.95;;;;;;;23.93;100.00;100903.13;5091883;28;20082;-51
2023/08/26 08:37:28;;;;;;;1.23;0.93;;;;;;;24.12;100.00;100901.56;5091954;28;20535;-57
2023/08/26 08:39:53;;;;;;;2.03;0.90;;;;;;;24.40;100.00;100890.09;5090838;28;20115;-55
2023/08/26 08:42:19;;;;;;;2.05;0.73;;;;;;;24.64;100.00;100898.63;5090808;28;20111;-57
2023/08/26 08:44:46;;;;;;;1.52;0.93;;;;;;;24.52;100.00;100856.66;5090857;28;20039;-56
2023/08/26 08:47:15;;;;;;;2.10;0.90;;;;;;;24.87;100.00;100896.59;5091779;28;20035;-51
2023/08/26 08:49:42;;;;;;;1.85;1.17;;;;;;;24.99;100.00;100890.94;5090500;28;20475;-58
2023/08/26 08:52:08;;;;;;;4.07;1.85;;;;;;;25.27;100.00;100908.09;5090612;28;20107;-57
2023/08/26 08:54:34;;;;;;;4.22;1.35;;;;;;;24.92;100.00;100862.88;5091700;28;20116;-53
2023/08/26 08:57:00;;;;;;;3.97;1.55;;;;;;;24.88;100.00;100876.75;5073026;28;20031;-52
2023/08/26 08:59:29;;;;;;;1.52;1.33;;;;;;;24.11;100.00;100863.06;5091004;28;20394;-58
2023/08/26 09:01:57;;;;;;;3.85;2.03;;;;;;;23.03;100.00;100852.72;5091862;28;20055;-50
2023/08/26 09:04:24;;;;;;;3.10;1.52;;;;;;;22.03;100.00;100852.94;5091827;28;20035;-59
2023/08/26 09:06:50;;;;;;;2.15;1.15;;;;;;;21.35;100.00;100836.00;5091894;28;20051;-56
2023/08/26 09:09:15;;;;;;;2.10;1.00;;;;;;;21.18;100.00;100893.50;5091746;28;20124;-51
2023/08/26 09:11:41;;;;;;;4.97;1.02;;;;;;;20.63;100.00;100896.72;5094526;28;20419;-51
2023/08/26 09:14:07;;;;;;;4.57;1.10;;;;;;;20.57;100.00;100898.03;5093793;28;20081;-53
2023/08/26 09:16:37;;;;;;;2.10;1.00;;;;;;;20.52;100.00;100835.16;5095879;28;20412;-52
2023/08/26 09:19:05;;;;;;;4.53;1.40;;;;;;;20.85;100.00;100896.00;5094800;28;20043;-55
2023/08/26 09:21:30;;;;;;;2.10;0.70;;;;;;;20.68;100.00;100890.06;5094828;28;20032;-51
2023/08/26 09:23:56;;;;;;;1.60;1.08;;;;;;;20.91;100.00;100895.53;5095609;28;20474;-50
2023/08/26 09:26:25;;;;;;;2.05;0.80;;;;;;;21.61;100.00;100902.66;5096113;28;20467;-57
2023/08/26 09:28:51;;;;;;;2.20;0.85;;;;;;;21.85;100.00;100851.66;5087884;28;20067;-54
2023/08/26 09:31:17;;;;;;;1.50;0.80;;;;;;;22.46;100.00;100802.03;5075563;28;20126;-55
2023/08/26 09:33:48;;;;;;;1.48;1.00;;;;;;;23.57;100.00;100927.81;5075253;28;20610;-57
2023/08/26 09:36:14;;;;;;;2.83;1.13;;;;;;;23.86;100.00;100872.41;5075290;28;20111;-49
2023/08/26 09:38:50;;;;;;;0.90;0.77;;;;;;;24.22;100.00;100873.75;5075173;28;20117;-57
2023/08/26 09:41:23;;;;;;;1.48;0.77;;;;;;;24.59;100.00;100943.97;5075467;28;20040;-52
2023/08/26 09:43:48;;;;;;;2.13;0.98;;;;;;;24.36;100.00;100931.69;5074238;28;20044;-50
2023/08/26 09:46:18;;;;;;;2.15;1.35;;;;;;;23.79;100.00;100848.91;5083118;28;20028;-50
2023/08/26 09:48:44;;;;;;;2.67;1.23;;;;;;;24.18;100.00;100912.66;5095937;28;20032;-52
2023/08/26 09:51:09;;;;;;;3.35;1.10;;;;;;;24.54;100.00;100908.53;5095362;28;20420;-56
2023/08/26 09:53:35;;;;;;;2.65;0.95;;;;;;;25.11;100.00;100927.50;5095271;28;20036;-53
2023/08/26 09:56:02;;;;;;;2.97;0.82;;;;;;;25.60;100.00;100917.59;5094162;28;20028;-52
2023/08/26 09:58:27;;;;;;;0.70;0.55;;;;;;;25.98;100.00;100860.03;5095344;28;20048;-55
2023/08/26 10:00:54;;;;;;;4.43;1.00;;;;;;;26.89;100.00;100948.28;5095482;28;20028;-53
2023/08/26 10:03:23;;;;;;;3.00;0.98;;;;;;;27.07;100.00;100949.16;5094278;28;20036;-54
2023/08/26 10:05:52;;;;;;;2.35;0.93;;;;;;;26.22;100.00;100866.63;5095217;28;20033;-58
2023/08/26 10:08:19;;;;;;;3.25;1.25;;;;;;;26.36;100.00;100886.88;5095101;28;20031;-56
2023/08/26 10:10:53;;;;;;;2.75;1.05;;;;;;;26.43;100.00;100944.66;5093943;28;20032;-50
2023/08/26 10:13:23;;;;;;;4.03;1.20;;;;;;;25.70;100.00;100938.19;5095012;28;20024;-58
2023/08/26 10:15:51;;;;;;;1.40;1.00;;;;;;;24.09;100.00;100871.25;5093750;28;20507;-54
2023/08/26 10:18:43;;;;;;;4.03;1.00;;;;;;;23.04;100.00;100912.63;5093575;28;20032;-56
2023/08/26 10:21:09;;;;;;;1.75;1.20;;;;;;;21.83;100.00;100842.91;5094642;28;20028;-57
2023/08/26 10:23:36;;;;;;;5.22;1.63;;;;;;;21.55;100.00;100884.38;5093646;28;20032;-54
2023/08/26 10:26:01;;;;;;;5.28;1.67;;;;;;;21.36;100.00;100878.75;5094940;28;20028;-57
2023/08/26 10:28:27;;;;;;;5.00;2.10;;;;;;;20.90;100.00;100865.25;5093385;28;20131;-55
2023/08/26 10:30:54;;;;;;;3.08;1.50;;;;;;;20.57;100.00;100857.91;5093534;28;20039;-54
2023/08/26 10:33:19;;;;;;;2.75;1.15;;;;;;;20.17;100.00;100870.59;5094856;28;20036;-53
2023/08/26 10:35:58;;;;;;;3.03;1.25;;;;;;;19.93;100.00;100858.16;5093718;28;20035;-53
2023/08/26 10:38:24;;;;;;;3.55;1.33;;;;;;;19.62;100.00;100833.59;5093303;28;20059;-53
2023/08/26 10:40:49;;;;;;;4.47;1.35;;;;;;;20.14;100.00;100865.47;5094550;28;20502;-52
2023/08/26 10:43:14;;;;;;;3.90;1.83;;;;;;;20.57;100.00;100860.59;5093267;28;20040;-53
2023/08/26 10:45:48;;;;;;;3.05;1.48;;;;;;;21.32;100.00;100853.16;5094781;28;20086;-56
2023/08/26 10:48:13;;;;;;;5.13;1.50;;;;;;;21.20;100.00;100816.63;5093404;28;20057;-56
2023/08/26 10:50:40;;;;;;;4.32;1.23;;;;;;;20.93;100.00;100816.03;5092862;28;20111;-54
2023/08/26 10:53:19;;;;;;;3.28;1.33;;;;;;;20.55;100.00;100816.19;5092808;28;20142;-57
2023/08/26 10:55:47;;;;;;;2.67;1.38;;;;;;;20.73;100.00;100798.78;5092784;28;20028;-51
2023/08/26 10:58:19;;;;;;;3.90;1.00;;;;;;;21.17;100.00;100806.13;5094259;28;20039;-55
2023/08/26 11:00:52;;;;;;;2.13;1.10;;;;;;;21.47;100.00;100875.22;5094320;28;20384;-55
2023/08/26 11:03:25;;;;;;;3.53;1.90;;;;;;;21.35;100.00;100866.31;5092878;28;20036;-51
2023/08/26 11:06:06;;;;;;;2.67;1.10;;;;;;;22.37;100.00;100880.56;5092543;28;20621;-52
2023/08/26 11:08:32;;;;;;;3.22;1.10;;;;;;;23.83;100.00;100893.31;5094046;28;20124;-56
2023/08/26 11:10:57;;;;;;;1.75;0.68;;;;;;;24.34;100.00;100867.25;5093777;28;20115;-53